Time;durP1;ratioP1;P1;durP2;ratioP2;P2;SDS_P1;SDS_P2;PMS_P1;PMS_P2;Temp;Humidity;BMP_temperature;BMP_pressure;BME280_temperature;BME280_humidity;BME280_pressure;Samples;Min_cycle;Max_cycle;Signal;HPM_P1;HPM_P2
2022/03/20 00:00:11;;;;;;;10.40;5.90;;;;;;;-1.42;39.46;101723.70;25113;1316;3026692;-71
2022/03/20 00:02:45;;;;;;;9.70;5.20;;;;;;;-1.40;39.55;101718.55;25102;1315;3056131;-69
2022/03/20 00:05:15;;;;;;;10.40;5.20;;;;;;;-1.40;39.55;101720.30;25091;1316;3026551;-69
2022/03/20 00:07:44;;;;;;;11.60;5.30;;;;;;;-1.41;39.64;101724.04;25130;1315;3027000;-71
2022/03/20 00:10:14;;;;;;;11.30;5.40;;;;;;;-1.43;39.71;101719.20;25088;1315;3058183;-70
2022/03/20 00:12:45;;;;;;;8.20;4.60;;;;;;;-1.39;39.78;101716.35;25088;1315;3026145;-66
2022/03/20 00:15:14;;;;;;;13.20;4.90;;;;;;;-1.41;39.64;101710.80;25169;1315;3029066;-69
2022/03/20 00:17:49;;;;;;;9.70;5.80;;;;;;;-1.52;40.15;101704.21;25178;1316;3051352;-72
2022/03/20 00:20:19;;;;;;;8.40;4.80;;;;;;;-1.50;39.80;101710.77;25071;1315;3028024;-71
2022/03/20 00:22:52;;;;;;;11.30;5.60;;;;;;;-1.50;39.75;101712.48;25140;1316;3026350;-68
2022/03/20 00:25:21;;;;;;;12.40;5.90;;;;;;;-1.58;39.82;101715.55;25123;1315;3028025;-66
2022/03/20 00:27:50;;;;;;;8.00;5.00;;;;;;;-1.60;39.79;101717.73;25168;1315;3029491;-69
2022/03/20 00:30:21;;;;;;;11.10;5.90;;;;;;;-1.66;40.26;101710.70;25150;1315;3048945;-73
2022/03/20 00:32:50;;;;;;;11.40;5.20;;;;;;;-1.71;40.65;101706.80;25111;1316;3026409;-69
2022/03/20 00:35:19;;;;;;;13.40;5.20;;;;;;;-1.72;40.55;101701.45;25117;1315;3026438;-66
2022/03/20 00:37:49;;;;;;;10.60;5.20;;;;;;;-1.73;40.40;101704.68;25101;1315;3048347;-70
2022/03/20 00:40:18;;;;;;;11.50;5.40;;;;;;;-1.74;40.18;101702.79;25150;1315;3030656;-72
2022/03/20 00:42:47;;;;;;;10.10;5.20;;;;;;;-1.72;40.41;101696.13;25108;1315;3026659;-69
2022/03/20 00:45:17;;;;;;;11.10;5.30;;;;;;;-1.70;40.41;101691.70;25100;1315;3026891;-67
2022/03/20 00:47:48;;;;;;;13.00;5.30;;;;;;;-1.66;40.19;101690.77;25144;1315;3055605;-67
2022/03/20 00:50:17;;;;;;;14.90;5.10;;;;;;;-1.74;40.37;101690.05;25119;1316;3026136;-71
2022/03/20 00:52:47;;;;;;;8.60;4.50;;;;;;;-1.79;40.61;101694.07;25094;1316;3026460;-70
2022/03/20 00:55:16;;;;;;;12.40;4.60;;;;;;;-1.80;40.43;101697.27;25107;1315;3027909;-72
2022/03/20 00:57:45;;;;;;;10.20;4.70;;;;;;;-1.78;40.18;101691.48;25080;1316;3050653;-69
2022/03/20 01:00:16;;;;;;;9.90;5.20;;;;;;;-1.83;40.27;101691.89;25131;1315;3028862;-67
2022/03/20 01:02:45;;;;;;;9.60;5.50;;;;;;;-1.92;40.78;101690.79;25094;1315;3026846;-68
2022/03/20 01:05:14;;;;;;;11.40;5.60;;;;;;;-1.97;40.95;101687.24;25078;1315;3026922;-70
2022/03/20 01:07:46;;;;;;;10.10;4.60;;;;;;;-1.96;40.88;101695.49;25176;1316;3026304;-68
2022/03/20 01:10:16;;;;;;;10.40;5.40;;;;;;;-1.91;40.93;101693.38;25145;1315;3027596;-71
2022/03/20 01:12:46;;;;;;;14.70;6.10;;;;;;;-1.93;41.11;101684.61;25173;1315;3027100;-70
2022/03/20 01:15:16;;;;;;;14.70;5.40;;;;;;;-1.92;41.01;101681.86;25133;1315;3026556;-69
2022/03/20 01:17:45;;;;;;;10.30;5.00;;;;;;;-1.93;41.40;101678.90;25163;1315;3030298;-69
2022/03/20 01:20:14;;;;;;;11.30;5.70;;;;;;;-1.94;41.09;101683.02;25115;1315;3029755;-69
2022/03/20 01:22:46;;;;;;;12.40;6.10;;;;;;;-1.99;41.45;101690.10;25137;1315;3027577;-71
2022/03/20 01:25:15;;;;;;;12.10;5.80;;;;;;;-2.08;41.74;101692.77;25139;1315;3026832;-71
2022/03/20 01:27:45;;;;;;;9.80;5.40;;;;;;;-2.07;41.69;101686.63;25119;1315;3058453;-70
2022/03/20 01:30:14;;;;;;;12.60;5.60;;;;;;;-2.08;41.53;101687.63;25158;1315;3026585;-71
2022/03/20 01:32:43;;;;;;;13.00;6.00;;;;;;;-2.08;41.86;101687.81;25121;1315;3026570;-69
2022/03/20 01:35:12;;;;;;;17.20;6.60;;;;;;;-2.20;42.36;101687.82;25132;1315;3058779;-72
2022/03/20 01:37:41;;;;;;;13.80;6.00;;;;;;;-2.26;43.00;101684.73;25110;1315;3028936;-70
2022/03/20 01:40:10;;;;;;;13.90;6.70;;;;;;;-2.31;43.14;101691.80;25142;1315;3051110;-68
2022/03/20 01:42:40;;;;;;;16.60;7.90;;;;;;;-2.45;43.33;101695.03;25133;1315;3026349;-68
2022/03/20 01:45:20;;;;;;;16.90;7.90;;;;;;;-2.60;44.17;101692.19;25132;1315;3026364;-71
2022/03/20 01:47:49;;;;;;;17.60;7.30;;;;;;;-2.51;43.73;101691.42;25074;1315;3054225;-70
2022/03/20 01:50:21;;;;;;;18.80;8.10;;;;;;;-2.55;44.02;101697.84;25100;1315;3026552;-73
2022/03/20 01:52:51;;;;;;;18.30;7.80;;;;;;;-2.58;44.02;101701.33;25125;1316;3029545;-68
2022/03/20 01:55:21;;;;;;;14.40;6.80;;;;;;;-2.64;44.07;101704.60;25172;1316;3026964;-71
2022/03/20 01:57:51;;;;;;;17.20;8.30;;;;;;;-2.67;43.92;101704.19;25119;1315;3026465;-74
2022/03/20 02:00:21;;;;;;;15.40;7.70;;;;;;;-2.73;43.84;101697.66;25084;1315;3026658;-71
2022/03/20 02:02:51;;;;;;;16.60;7.70;;;;;;;-2.74;43.93;101698.31;25073;1316;3029186;-71
2022/03/20 02:05:21;;;;;;;21.10;7.60;;;;;;;-2.81;44.37;101698.61;25083;1315;3026474;-68
2022/03/20 02:07:50;;;;;;;18.10;7.70;;;;;;;-2.81;43.89;101697.77;25105;1314;3029524;-69
2022/03/20 02:10:18;;;;;;;14.30;7.00;;;;;;;-2.82;44.39;101710.26;25100;1315;3029761;-72
2022/03/20 02:12:50;;;;;;;14.40;6.90;;;;;;;-2.90;44.36;101706.93;25133;1315;3052402;-71
2022/03/20 02:15:19;;;;;;;12.50;6.50;;;;;;;-2.92;44.31;101703.95;25149;1315;3026043;-70
2022/03/20 02:17:48;;;;;;;16.50;7.10;;;;;;;-2.90;44.02;101704.55;25052;1316;3056275;-70
2022/03/20 02:20:20;;;;;;;14.40;7.10;;;;;;;-2.92;44.33;101700.70;25099;1315;3026662;-68
2022/03/20 02:22:49;;;;;;;17.40;7.10;;;;;;;-3.03;44.65;101699.67;25095;1315;3027177;-73
2022/03/20 02:25:19;;;;;;;17.70;8.40;;;;;;;-3.10;44.80;101695.02;25185;1315;3026337;-69
2022/03/20 02:27:48;;;;;;;14.80;7.20;;;;;;;-3.08;44.69;101695.58;25156;1315;3051708;-71
2022/03/20 02:30:18;;;;;;;16.00;7.30;;;;;;;-3.20;45.01;101692.11;25110;1315;3026411;-68
2022/03/20 02:32:49;;;;;;;15.10;6.60;;;;;;;-3.17;44.66;101692.38;25052;1315;3028854;-72
2022/03/20 02:35:19;;;;;;;14.10;6.50;;;;;;;-3.13;44.86;101694.23;25128;1315;3026810;-70
2022/03/20 02:37:50;;;;;;;13.40;6.60;;;;;;;-3.15;44.69;101695.69;25091;1315;3026134;-70
2022/03/20 02:40:21;;;;;;;17.70;6.70;;;;;;;-3.27;45.26;101694.64;25173;1315;3026438;-74
2022/03/20 02:42:54;;;;;;;13.30;6.50;;;;;;;-3.33;45.24;101699.59;25160;1318;3027094;-67
2022/03/20 02:45:30;;;;;;;13.00;6.10;;;;;;;-3.31;45.10;101701.89;25107;1315;3026446;-70
2022/03/20 02:48:01;;;;;;;14.90;6.60;;;;;;;-3.32;45.16;101708.55;25092;1315;3049694;-68
2022/03/20 02:50:34;;;;;;;13.00;7.30;;;;;;;-3.32;44.99;101706.14;25126;1314;3031190;-68
2022/03/20 02:53:14;;;;;;;13.60;6.30;;;;;;;-3.39;45.13;101700.12;25161;1315;3054055;-71
2022/03/20 02:55:47;;;;;;;14.10;6.00;;;;;;;-3.41;45.43;101701.42;25142;1315;3069248;-71
2022/03/20 02:58:17;;;;;;;14.00;6.40;;;;;;;-3.42;45.67;101704.27;25151;1315;3027010;-70
2022/03/20 03:00:46;;;;;;;11.90;6.00;;;;;;;-3.40;45.09;101699.20;25090;1315;3026481;-70
2022/03/20 03:03:18;;;;;;;12.90;6.50;;;;;;;-3.44;45.36;101699.08;25133;1315;3026717;-70
2022/03/20 03:05:47;;;;;;;16.10;6.50;;;;;;;-3.47;45.54;101700.51;25126;1315;3026604;-72
2022/03/20 03:11:05;;;;;;;13.10;6.00;;;;;;;-3.44;45.45;101696.17;25068;1315;3055345;-70
2022/03/20 03:13:36;;;;;;;16.20;5.90;;;;;;;-3.47;45.69;101696.08;25076;1315;3026982;-67
2022/03/20 03:16:08;;;;;;;12.20;5.90;;;;;;;-3.52;45.98;101691.27;25126;1315;3026448;-67
2022/03/20 03:18:38;;;;;;;14.20;7.10;;;;;;;-3.59;46.33;101685.06;25103;1314;3026939;-68
2022/03/20 03:21:11;;;;;;;14.70;6.70;;;;;;;-3.64;46.64;101682.85;25083;1315;3028137;-68
2022/03/20 03:23:40;;;;;;;9.70;6.00;;;;;;;-3.78;46.90;101678.27;25049;1315;3026933;-68
2022/03/20 03:26:10;;;;;;;11.90;6.00;;;;;;;-3.82;46.83;101682.06;25045;1316;3029194;-67
2022/03/20 03:28:39;;;;;;;14.30;7.30;;;;;;;-3.79;46.61;101682.00;25145;1315;3026771;-69
2022/03/20 03:31:09;;;;;;;13.80;6.70;;;;;;;-3.78;47.13;101680.50;25181;1315;3026881;-71
2022/03/20 03:35:41;;;;;;;14.80;7.00;;;;;;;-3.70;46.25;101678.52;25113;1315;3050342;-69
2022/03/20 03:36:29;;;;;;;11.90;5.90;;;;;;;-3.75;46.56;101677.66;25108;1315;3055345;-66
2022/03/20 03:38:58;;;;;;;13.20;6.60;;;;;;;-3.79;46.93;101683.00;25021;1315;3026231;-68
2022/03/20 03:41:27;;;;;;;13.90;6.20;;;;;;;-3.85;46.66;101682.64;25033;1315;3026665;-66
2022/03/20 03:43:57;;;;;;;12.20;6.70;;;;;;;-3.87;46.98;101689.27;25117;1315;3052959;-69
2022/03/20 03:46:28;;;;;;;12.40;6.20;;;;;;;-3.99;47.20;101682.85;25089;1316;3026378;-65
2022/03/20 03:48:57;;;;;;;13.30;6.30;;;;;;;-3.90;47.05;101681.46;25109;1315;3027539;-67
2022/03/20 03:51:26;;;;;;;11.20;6.50;;;;;;;-3.83;46.79;101677.73;25098;1315;3030988;-70
2022/03/20 03:53:55;;;;;;;13.60;6.70;;;;;;;-3.84;46.89;101676.35;25100;1315;3051947;-67
2022/03/20 03:56:25;;;;;;;13.20;6.70;;;;;;;-3.86;46.91;101674.55;25134;1315;3028225;-68
2022/03/20 03:58:54;;;;;;;11.20;6.00;;;;;;;-3.88;46.73;101672.09;25127;1315;3026566;-66
2022/03/20 04:01:24;;;;;;;12.80;6.70;;;;;;;-3.91;47.42;101675.27;25143;1315;3055079;-71
2022/03/20 04:03:53;;;;;;;12.80;6.00;;;;;;;-3.93;47.07;101674.86;25098;1315;3026855;-71
2022/03/20 04:06:22;;;;;;;11.80;5.30;;;;;;;-3.93;46.92;101675.02;25151;1315;3054029;-68
2022/03/20 04:08:51;;;;;;;13.40;6.50;;;;;;;-3.91;46.63;101676.28;25113;1316;3026566;-68
2022/03/20 04:11:20;;;;;;;11.40;5.90;;;;;;;-3.89;46.63;101682.17;25192;1315;3051468;-65
2022/03/20 04:13:49;;;;;;;13.10;6.00;;;;;;;-3.88;46.68;101683.73;25114;1315;3027977;-65
2022/03/20 04:16:18;;;;;;;11.60;5.80;;;;;;;-3.91;46.91;101686.03;25140;1315;3027001;-66
2022/03/20 04:18:47;;;;;;;11.90;6.20;;;;;;;-3.84;46.69;101684.73;25159;1316;3047782;-64
2022/03/20 04:21:17;;;;;;;13.30;6.30;;;;;;;-3.83;46.39;101685.27;25091;1315;3026486;-67
2022/03/20 04:23:48;;;;;;;12.70;6.20;;;;;;;-3.78;46.49;101687.17;25029;1315;3026355;-68
2022/03/20 04:26:20;;;;;;;14.40;6.90;;;;;;;-3.74;46.28;101687.31;25120;1315;3026382;-66
2022/03/20 04:28:52;;;;;;;11.20;5.70;;;;;;;-3.72;46.12;101687.55;25149;1315;3049111;-69
2022/03/20 04:31:21;;;;;;;14.60;6.10;;;;;;;-3.67;46.08;101688.02;25146;1315;3026223;-67
2022/03/20 04:33:53;;;;;;;11.40;6.30;;;;;;;-3.61;45.93;101694.42;25094;1315;3026265;-68
2022/03/20 04:36:24;;;;;;;12.60;6.10;;;;;;;-3.57;45.97;101694.53;25099;1316;3027111;-69
2022/03/20 04:38:55;;;;;;;16.40;6.90;;;;;;;-3.59;46.02;101692.23;25064;1315;3026348;-68
2022/03/20 04:41:24;;;;;;;12.30;6.40;;;;;;;-3.54;45.47;101698.77;25035;1315;3026500;-65
2022/03/20 04:43:52;;;;;;;16.70;7.40;;;;;;;-3.49;45.82;101703.02;25108;1315;3026687;-67
2022/03/20 04:46:21;;;;;;;12.30;6.40;;;;;;;-3.43;45.19;101707.86;25143;1315;3051289;-71
2022/03/20 05:00:06;;;;;;;10.70;5.70;;;;;;;-3.30;44.26;101702.61;25149;1316;3054502;-70
2022/03/20 05:02:35;;;;;;;10.50;5.60;;;;;;;-3.23;43.94;101701.46;25120;1315;3029433;-70
2022/03/20 05:05:05;;;;;;;13.90;6.40;;;;;;;-3.15;43.29;101703.93;25172;1315;3027410;-66
2022/03/20 05:07:35;;;;;;;10.40;5.80;;;;;;;-3.05;42.85;101705.80;25131;1315;3051882;-66
2022/03/20 05:13:22;;;;;;;13.20;6.00;;;;;;;-2.89;42.20;101716.05;25072;1317;3068684;-70
2022/03/20 05:15:55;;;;;;;16.40;6.40;;;;;;;-2.82;41.76;101711.80;25110;1314;3052117;-67
2022/03/20 05:18:24;;;;;;;14.40;6.10;;;;;;;-2.82;41.33;101711.29;25132;1315;3026405;-68
2022/03/20 05:21:04;;;;;;;11.10;6.10;;;;;;;-2.80;41.21;101710.66;25154;1315;3055425;-65
2022/03/20 05:23:33;;;;;;;13.30;6.30;;;;;;;-2.69;40.33;101711.48;25145;1315;3027422;-63
2022/03/20 05:26:02;;;;;;;12.00;5.90;;;;;;;-2.57;40.52;101705.50;25122;1315;3026445;-72
2022/03/20 05:28:32;;;;;;;14.40;6.40;;;;;;;-2.48;40.09;101702.32;25143;1315;3054063;-69
2022/03/20 05:31:01;;;;;;;10.60;5.70;;;;;;;-2.36;39.65;101698.36;25105;1315;3027507;-67
2022/03/20 05:33:33;;;;;;;11.70;6.10;;;;;;;-2.30;39.59;101702.81;25129;1315;3051734;-69
2022/03/20 05:36:03;;;;;;;14.60;6.80;;;;;;;-2.18;39.64;101701.44;25124;1316;3026359;-69
2022/03/20 05:38:32;;;;;;;10.80;5.80;;;;;;;-2.10;38.40;101703.71;25169;1316;3026327;-71
2022/03/20 05:43:52;;;;;;;10.20;5.50;;;;;;;-1.85;37.82;101701.98;25102;1315;3055455;-69
2022/03/20 05:46:21;;;;;;;7.50;4.70;;;;;;;-1.74;37.68;101704.84;25130;1315;3026088;-72
2022/03/20 05:48:52;;;;;;;9.70;5.00;;;;;;;-1.62;37.25;101707.03;25128;1315;3026510;-68
2022/03/20 05:51:21;;;;;;;10.10;5.10;;;;;;;-1.70;36.96;101705.95;25077;1315;3052923;-72
2022/03/20 05:53:50;;;;;;;9.30;5.10;;;;;;;-1.69;36.70;101706.52;25093;1316;3026992;-68
2022/03/20 05:59:07;;;;;;;10.10;5.30;;;;;;;-1.35;36.33;101705.46;25115;1315;3056129;-67
2022/03/20 06:01:36;;;;;;;9.50;4.90;;;;;;;-1.26;36.24;101709.79;25131;1315;3026242;-68
2022/03/20 06:04:06;;;;;;;10.60;4.50;;;;;;;-1.18;36.15;101710.14;25096;1315;3052972;-69
2022/03/20 06:06:36;;;;;;;12.10;5.60;;;;;;;-1.04;36.08;101712.90;25108;1315;3026688;-70
2022/03/20 06:09:06;;;;;;;9.90;5.60;;;;;;;-1.01;35.51;101707.45;25174;1316;3026663;-67
2022/03/20 06:11:35;;;;;;;10.70;4.40;;;;;;;-0.96;35.48;101712.37;25107;1315;3026393;-72
2022/03/20 06:14:04;;;;;;;8.00;4.80;;;;;;;-0.72;35.91;101714.63;25112;1315;3053166;-68
2022/03/20 06:16:35;;;;;;;11.10;4.90;;;;;;;-0.59;35.38;101713.16;25077;1315;3026334;-66
2022/03/20 06:19:08;;;;;;;9.40;4.70;;;;;;;-0.50;35.15;101710.79;25114;1315;3027018;-71
2022/03/20 06:21:38;;;;;;;12.40;4.70;;;;;;;-0.50;34.58;101708.05;25150;1315;3026780;-70
2022/03/20 06:24:07;;;;;;;8.20;4.50;;;;;;;-0.42;34.73;101708.89;25114;1315;3026740;-65
2022/03/20 06:26:36;;;;;;;7.90;4.10;;;;;;;-0.28;34.49;101703.81;25142;1316;3026355;-71
2022/03/20 06:29:06;;;;;;;8.60;4.60;;;;;;;-0.16;34.58;101702.69;25162;1315;3048424;-69
2022/03/20 06:31:35;;;;;;;12.70;4.90;;;;;;;-0.07;34.41;101700.26;25132;1315;3027116;-70
2022/03/20 06:34:05;;;;;;;12.70;4.90;;;;;;;0.01;34.00;101704.38;25128;1315;3067674;-69
2022/03/20 06:36:35;;;;;;;10.00;4.60;;;;;;;0.01;33.22;101701.11;25112;1315;3027867;-72
2022/03/20 06:39:04;;;;;;;8.30;4.40;;;;;;;-0.03;32.90;101697.08;25104;1316;3029939;-67
2022/03/20 06:41:33;;;;;;;9.40;4.30;;;;;;;0.11;33.27;101689.56;25154;1315;3027135;-71
2022/03/20 06:44:05;;;;;;;8.70;4.60;;;;;;;0.16;33.16;101686.37;25049;1316;3050963;-67
2022/03/20 06:46:37;;;;;;;9.00;4.50;;;;;;;0.14;32.72;101692.89;25148;1315;3027776;-70
2022/03/20 06:49:08;;;;;;;8.00;4.70;;;;;;;0.16;32.59;101703.80;25076;1315;3028998;-72
2022/03/20 06:51:59;;;;;;;7.50;4.10;;;;;;;0.34;32.88;101701.34;25057;1315;3026402;-71
2022/03/20 06:54:40;;;;;;;8.00;4.10;;;;;;;0.43;32.73;101707.54;25125;1315;3052023;-67
2022/03/20 06:57:10;;;;;;;8.00;4.20;;;;;;;0.39;32.20;101709.54;25115;1315;3026869;-72
2022/03/20 06:59:39;;;;;;;12.30;4.70;;;;;;;0.47;31.92;101706.05;25111;1315;3030679;-75
2022/03/20 07:02:08;;;;;;;9.00;4.10;;;;;;;0.54;31.77;101701.15;25117;1315;3026658;-69
2022/03/20 07:04:38;;;;;;;13.70;4.20;;;;;;;0.52;31.23;101702.52;25142;1315;3054964;-72
2022/03/20 07:07:07;;;;;;;11.80;4.30;;;;;;;0.63;32.06;101696.99;25124;1315;3026651;-74
2022/03/20 07:09:55;;;;;;;7.70;4.90;;;;;;;0.70;31.31;101698.83;25116;1315;3050014;-68
2022/03/20 07:12:24;;;;;;;13.80;5.10;;;;;;;0.77;31.61;101701.17;25122;1315;3028527;-69
2022/03/20 07:15:19;;;;;;;9.70;4.50;;;;;;;0.78;31.26;101706.72;25152;1315;3059324;-72
2022/03/20 07:18:13;;;;;;;11.40;4.10;;;;;;;0.77;30.62;101701.35;25088;1315;3052501;-69
2022/03/20 07:20:44;;;;;;;8.00;3.90;;;;;;;0.82;30.69;101700.90;25104;1315;3053751;-68
2022/03/20 07:23:13;;;;;;;18.00;5.40;;;;;;;0.89;30.90;101699.45;25087;1315;3027572;-73
2022/03/20 07:31:53;;;;;;;8.40;3.80;;;;;;;1.03;30.72;101700.70;25134;1315;3055372;-70
2022/03/20 07:34:24;;;;;;;7.10;3.50;;;;;;;1.13;30.93;101699.29;25162;1315;3053681;-68
2022/03/20 07:37:16;;;;;;;9.10;4.30;;;;;;;1.22;30.85;101696.82;25072;1315;3056232;-69
2022/03/20 07:39:47;;;;;;;13.40;4.70;;;;;;;1.24;31.02;101701.69;25192;1315;3026529;-72
2022/03/20 07:42:26;;;;;;;9.20;4.10;;;;;;;1.15;30.82;101698.10;25178;1315;3027580;-69
2022/03/20 07:45:15;;;;;;;9.30;4.50;;;;;;;1.26;31.53;101693.94;25090;1316;3051095;-72
2022/03/20 07:47:44;;;;;;;18.50;6.00;;;;;;;1.42;31.90;101691.05;25208;1315;3026833;-71
2022/03/20 07:50:13;;;;;;;10.70;4.90;;;;;;;1.44;31.93;101694.86;25201;1315;3052492;-71
2022/03/20 07:52:44;;;;;;;13.60;5.30;;;;;;;1.62;31.99;101695.26;25118;1315;3026873;-74
2022/03/20 07:55:13;;;;;;;13.90;5.30;;;;;;;1.82;31.70;101690.81;25087;1316;3026344;-67
2022/03/20 07:57:44;;;;;;;11.90;4.80;;;;;;;2.04;31.49;101690.35;25165;1315;3026838;-71
2022/03/20 08:00:14;;;;;;;8.80;4.00;;;;;;;2.17;31.03;101688.92;25117;1315;3026826;-70
2022/03/20 08:02:44;;;;;;;12.10;5.10;;;;;;;2.14;30.90;101687.67;25150;1316;3027012;-71
2022/03/20 08:05:15;;;;;;;8.30;4.20;;;;;;;2.12;30.48;101689.73;25094;1315;3029136;-70
2022/03/20 08:07:44;;;;;;;12.40;4.60;;;;;;;2.31;30.10;101692.86;25152;1315;3026360;-66
2022/03/20 08:10:33;;;;;;;8.90;3.70;;;;;;;2.57;29.38;101686.49;25087;1315;3053298;-70
2022/03/20 08:13:02;;;;;;;6.10;3.70;;;;;;;2.67;27.06;101684.48;25148;1315;3029611;-71
2022/03/20 08:15:32;;;;;;;8.90;3.70;;;;;;;2.62;27.53;101683.23;25117;1315;3029946;-70
2022/03/20 08:18:01;;;;;;;9.90;4.40;;;;;;;2.61;27.81;101689.64;25120;1315;3026381;-73
2022/03/20 08:20:31;;;;;;;14.10;4.20;;;;;;;2.63;27.65;101688.96;25149;1315;3026506;-67
2022/03/20 08:23:01;;;;;;;9.90;3.80;;;;;;;2.61;27.46;101683.06;25148;1316;3029013;-71
2022/03/20 08:25:30;;;;;;;11.30;4.00;;;;;;;2.65;27.28;101682.75;25128;1315;3051430;-72
2022/03/20 08:28:11;;;;;;;6.70;3.20;;;;;;;2.86;25.84;101683.59;25115;1315;3055503;-72
2022/03/20 08:30:43;;;;;;;8.10;3.60;;;;;;;3.09;24.97;101686.51;25131;1315;3051879;-73
2022/03/20 08:33:12;;;;;;;8.10;3.50;;;;;;;3.34;25.15;101684.05;25165;1315;3028013;-69
2022/03/20 08:35:41;;;;;;;8.10;3.20;;;;;;;3.52;25.10;101682.73;25112;1315;3026129;-71
2022/03/20 08:38:10;;;;;;;7.30;3.60;;;;;;;3.72;24.90;101679.86;25126;1315;3050785;-70
2022/03/20 08:40:39;;;;;;;7.50;3.20;;;;;;;3.80;24.26;101681.09;25118;1315;3026272;-73
2022/03/20 08:43:13;;;;;;;8.20;3.60;;;;;;;4.00;23.85;101686.67;25115;1314;3054290;-73
2022/03/20 08:45:44;;;;;;;7.50;3.10;;;;;;;4.07;22.77;101684.63;25098;1315;3052044;-69
2022/03/20 08:48:13;;;;;;;6.50;2.80;;;;;;;4.13;22.77;101683.08;25137;1315;3027121;-73
2022/03/20 08:50:44;;;;;;;6.00;3.20;;;;;;;4.05;22.73;101679.08;25110;1315;3031731;-70
2022/03/20 08:53:13;;;;;;;10.50;3.80;;;;;;;4.16;22.35;101678.73;25111;1315;3054201;-69
2022/03/20 08:55:42;;;;;;;9.70;3.50;;;;;;;4.03;21.40;101676.64;25075;1315;3028895;-70
2022/03/20 08:58:11;;;;;;;7.90;3.30;;;;;;;4.06;21.29;101680.10;25128;1315;3026559;-70
2022/03/20 09:00:41;;;;;;;9.00;3.00;;;;;;;3.98;21.13;101680.27;25116;1316;3054176;-70
2022/03/20 09:03:11;;;;;;;8.50;3.00;;;;;;;3.87;21.17;101679.73;25170;1315;3027938;-71
2022/03/20 09:05:40;;;;;;;5.60;2.90;;;;;;;3.90;21.07;101683.36;25088;1315;3055016;-72
2022/03/20 09:08:10;;;;;;;7.70;3.00;;;;;;;4.11;21.17;101679.06;25164;1315;3029454;-70
2022/03/20 09:10:39;;;;;;;5.10;3.00;;;;;;;4.29;21.39;101675.45;25085;1315;3051635;-70
2022/03/20 09:13:08;;;;;;;9.90;3.10;;;;;;;4.18;21.03;101674.56;25107;1315;3027681;-72
2022/03/20 09:15:37;;;;;;;6.50;3.00;;;;;;;4.21;20.94;101674.93;25166;1315;3028562;-70
2022/03/20 09:20:55;;;;;;;6.20;2.90;;;;;;;4.60;20.85;101669.21;25137;1315;3052378;-69
2022/03/20 09:23:24;;;;;;;6.30;2.90;;;;;;;4.59;20.34;101661.04;25225;1315;3027977;-69
2022/03/20 09:25:54;;;;;;;4.90;2.60;;;;;;;4.68;20.17;101657.73;25229;1315;3049030;-72
2022/03/20 09:28:23;;;;;;;10.40;3.20;;;;;;;4.96;20.63;101651.27;25185;1315;3026609;-69
2022/03/20 09:30:53;;;;;;;6.90;3.40;;;;;;;4.95;19.79;101648.31;25170;1315;3070050;-67
2022/03/20 09:33:25;;;;;;;7.60;2.60;;;;;;;5.20;20.33;101649.97;24991;1315;3026593;-72
2022/03/20 09:35:55;;;;;;;6.80;3.10;;;;;;;5.18;20.01;101644.77;25048;1315;3026740;-70
2022/03/20 09:38:26;;;;;;;6.10;2.70;;;;;;;5.37;19.86;101642.61;25104;1315;3027419;-71
2022/03/20 09:40:56;;;;;;;10.90;3.00;;;;;;;5.51;19.56;101639.93;25122;1315;3026420;-71
2022/03/20 09:43:25;;;;;;;5.80;3.10;;;;;;;5.40;18.83;101637.90;25111;1315;3028027;-69
2022/03/20 09:45:54;;;;;;;6.10;3.10;;;;;;;5.57;19.89;101634.86;25131;1315;3026341;-69
2022/03/20 09:48:26;;;;;;;9.00;3.40;;;;;;;5.45;18.98;101633.18;25118;1315;3056968;-69
2022/03/20 09:50:56;;;;;;;7.10;2.50;;;;;;;5.45;18.72;101627.45;25106;1315;3026913;-67
2022/03/20 09:53:25;;;;;;;4.80;2.40;;;;;;;5.52;18.94;101630.70;25141;1316;3026455;-70
2022/03/20 09:55:58;;;;;;;5.60;2.70;;;;;;;5.67;18.48;101625.08;25138;1315;3026518;-68
2022/03/20 09:58:28;;;;;;;5.50;2.60;;;;;;;5.60;18.36;101620.24;25166;1315;3028025;-71
2022/03/20 10:00:57;;;;;;;7.40;3.20;;;;;;;5.43;18.17;101618.43;25155;1315;3026724;-72
2022/03/20 10:03:29;;;;;;;5.90;2.20;;;;;;;5.61;19.05;101624.95;25138;1315;3026749;-69
2022/03/20 10:06:24;;;;;;;5.40;2.90;;;;;;;5.70;18.36;101624.70;25132;1315;3026293;-70
2022/03/20 10:09:02;;;;;;;8.30;2.90;;;;;;;5.70;18.00;101614.80;25171;1315;3059610;-70
2022/03/20 10:11:37;;;;;;;4.90;2.50;;;;;;;5.83;17.77;101614.36;25187;1315;3049999;-67
2022/03/20 10:14:20;;;;;;;5.00;2.20;;;;;;;5.81;17.28;101610.38;25125;1315;3026585;-71
2022/03/20 10:16:53;;;;;;;5.00;2.50;;;;;;;5.97;18.19;101605.75;25128;1315;3053084;-69
2022/03/20 10:19:22;;;;;;;4.70;2.30;;;;;;;6.00;17.62;101601.40;25083;1315;3026633;-70
2022/03/20 10:21:58;;;;;;;4.40;2.50;;;;;;;5.97;17.58;101600.36;24749;1315;3029004;-70
2022/03/20 10:24:29;;;;;;;6.60;2.50;;;;;;;6.16;17.83;101598.84;25159;1316;3053720;-67
2022/03/20 10:27:01;;;;;;;7.00;3.20;;;;;;;6.21;17.42;101593.77;25148;1315;3027704;-67
2022/03/20 10:29:34;;;;;;;6.20;3.50;;;;;;;6.23;17.11;101593.58;25139;1315;3026934;-67
2022/03/20 10:32:11;;;;;;;8.00;3.00;;;;;;;6.26;17.53;101591.10;25126;1315;3053342;-65
2022/03/20 10:34:52;;;;;;;6.30;3.10;;;;;;;6.48;17.54;101587.24;25154;1314;3052838;-70
2022/03/20 10:37:49;;;;;;;11.40;3.70;;;;;;;6.32;17.00;101584.61;25124;1315;3057719;-65
2022/03/20 10:40:27;;;;;;;10.20;3.50;;;;;;;6.33;17.16;101589.30;25114;1315;3049907;-65
2022/03/20 10:43:06;;;;;;;9.30;3.90;;;;;;;6.41;17.05;101589.91;25121;1315;3053185;-67
2022/03/20 10:45:56;;;;;;;8.80;3.90;;;;;;;6.18;16.78;101589.08;25098;1316;3054312;-71
2022/03/20 10:48:30;;;;;;;9.50;4.20;;;;;;;6.51;17.43;101587.58;25099;1315;3068313;-68
2022/03/20 10:51:00;;;;;;;12.30;4.40;;;;;;;6.68;17.35;101581.65;25136;1315;3049940;-63
2022/03/20 10:53:30;;;;;;;9.70;4.70;;;;;;;6.61;17.19;101578.23;25163;1315;3026474;-68
2022/03/20 10:56:08;;;;;;;14.60;4.90;;;;;;;6.75;17.26;101581.55;25103;1315;3026651;-69
2022/03/20 10:58:38;;;;;;;9.90;4.90;;;;;;;6.85;17.03;101577.96;25167;1315;3056694;-67
2022/03/20 11:01:08;;;;;;;12.00;4.90;;;;;;;6.78;17.24;101580.48;25137;1316;3026574;-68
2022/03/20 11:03:39;;;;;;;11.90;4.70;;;;;;;6.98;17.30;101571.02;25133;1316;3026441;-66
2022/03/20 11:06:10;;;;;;;10.00;4.30;;;;;;;7.00;16.62;101560.38;25088;1315;3027565;-72
2022/03/20 11:08:40;;;;;;;10.60;3.40;;;;;;;7.16;16.78;101555.46;25121;1316;3026828;-71
2022/03/20 11:11:10;;;;;;;6.40;2.80;;;;;;;7.27;16.93;101556.20;25147;1315;3026912;-66
2022/03/20 11:13:40;;;;;;;6.30;2.40;;;;;;;7.36;16.23;101551.00;25109;1315;3053712;-66
2022/03/20 11:16:10;;;;;;;5.90;3.10;;;;;;;7.49;15.99;101549.61;25057;1315;3027576;-65
2022/03/20 11:18:39;;;;;;;6.40;2.60;;;;;;;7.65;16.27;101546.76;25103;1314;3026606;-70
2022/03/20 11:21:08;;;;;;;8.60;2.90;;;;;;;7.70;15.85;101545.45;25064;1317;3053864;-69
2022/03/20 11:23:37;;;;;;;9.50;2.90;;;;;;;7.82;16.09;101542.84;25088;1315;3026943;-67
2022/03/20 11:26:06;;;;;;;6.00;2.90;;;;;;;7.78;15.74;101538.17;25063;1315;3055158;-72
2022/03/20 11:28:45;;;;;;;6.50;2.50;;;;;;;7.88;15.81;101535.75;25077;1318;3028090;-71
2022/03/20 11:31:14;;;;;;;8.00;3.10;;;;;;;7.96;15.79;101534.40;25137;1315;3052864;-72
2022/03/20 11:33:44;;;;;;;6.20;2.80;;;;;;;7.95;16.21;101540.35;25127;1318;3026488;-69
2022/03/20 11:36:14;;;;;;;7.70;2.80;;;;;;;8.00;16.16;101536.42;25072;1316;3028437;-68
2022/03/20 11:38:43;;;;;;;6.20;2.60;;;;;;;7.94;16.11;101532.33;25104;1315;3049536;-66
2022/03/20 11:41:23;;;;;;;7.90;2.90;;;;;;;8.16;16.07;101528.30;25104;1316;3026056;-68
2022/03/20 11:44:20;;;;;;;8.20;3.20;;;;;;;8.49;16.10;101526.14;25137;1315;3056816;-66
2022/03/20 11:47:14;;;;;;;8.50;2.90;;;;;;;8.56;15.78;101522.52;25161;1315;3050062;-68
2022/03/20 11:49:44;;;;;;;6.20;2.70;;;;;;;8.57;15.78;101514.83;25158;1315;3053513;-65
2022/03/20 11:52:14;;;;;;;9.00;3.20;;;;;;;8.64;15.92;101512.23;25091;1318;3026482;-68
2022/03/20 11:54:44;;;;;;;7.30;3.30;;;;;;;8.63;15.63;101510.51;25120;1315;3050123;-67
2022/03/20 11:57:29;;;;;;;5.00;3.00;;;;;;;8.80;15.62;101506.50;25119;1315;3026241;-66
2022/03/20 12:00:10;;;;;;;7.60;3.80;;;;;;;8.98;15.41;101504.20;25122;1316;3051747;-68